sensor_id;sensor_type;location;lat;lon;timestamp;temperature;humidity
39347;DHT22;26262;49.836;6.632;2023-12-29T00:01:50;8.90;99.90
39347;DHT22;26262;49.836;6.632;2023-12-29T00:04:15;9.10;99.90
39347;DHT22;26262;49.836;6.632;2023-12-29T00:06:41;9.10;99.90
39347;DHT22;26262;49.836;6.632;2023-12-29T00:09:07;9.10;99.90
39347;DHT22;26262;49.836;6.632;2023-12-29T00:11:32;9.20;99.90
39347;DHT22;26262;49.836;6.632;2023-12-29T00:13:58;9.20;99.90
39347;DHT22;26262;49.836;6.632;2023-12-29T00:16:23;9.10;99.90
39347;DHT22;26262;49.836;6.632;2023-12-29T00:18:49;9.10;99.90
39347;DHT22;26262;49.836;6.632;2023-12-29T00:21:14;9.20;99.90
39347;DHT22;26262;49.836;6.632;2023-12-29T00:23:39;9.10;99.90
39347;DHT22;26262;49.836;6.632;2023-12-29T00:26:05;9.20;99.90
39347;DHT22;26262;49.836;6.632;2023-12-29T00:28:30;9.30;99.90
39347;DHT22;26262;49.836;6.632;2023-12-29T00:30:56;9.30;99.90
39347;DHT22;26262;49.836;6.632;2023-12-29T00:33:21;9.20;99.90
39347;DHT22;26262;49.836;6.632;2023-12-29T00:35:47;9.30;99.90
39347;DHT22;26262;49.836;6.632;2023-12-29T00:38:12;9.20;99.90
39347;DHT22;26262;49.836;6.632;2023-12-29T00:40:38;9.20;99.90
39347;DHT22;26262;49.836;6.632;2023-12-29T00:43:03;9.30;99.90
39347;DHT22;26262;49.836;6.632;2023-12-29T00:45:28;9.30;99.90
39347;DHT22;26262;49.836;6.632;2023-12-29T00:48:01;9.40;99.90
39347;DHT22;26262;49.836;6.632;2023-12-29T00:50:27;9.20;99.90
39347;DHT22;26262;49.836;6.632;2023-12-29T00:52:52;9.20;99.90
39347;DHT22;26262;49.836;6.632;2023-12-29T00:55:17;9.20;99.90
39347;DHT22;26262;49.836;6.632;2023-12-29T00:57:43;9.20;99.90
39347;DHT22;26262;49.836;6.632;2023-12-29T01:00:10;9.20;99.90
39347;DHT22;26262;49.836;6.632;2023-12-29T01:02:36;9.10;99.90
39347;DHT22;26262;49.836;6.632;2023-12-29T01:05:01;9.00;99.90
39347;DHT22;26262;49.836;6.632;2023-12-29T01:07:27;9.10;99.90
39347;DHT22;26262;49.836;6.632;2023-12-29T01:09:52;9.20;99.90
39347;DHT22;26262;49.836;6.632;2023-12-29T01:12:17;9.30;99.90
39347;DHT22;26262;49.836;6.632;2023-12-29T01:14:43;9.10;99.90
39347;DHT22;26262;49.836;6.632;2023-12-29T01:17:08;9.00;99.90
39347;DHT22;26262;49.836;6.632;2023-12-29T01:19:34;8.90;99.90
39347;DHT22;26262;49.836;6.632;2023-12-29T01:21:59;9.10;99.90
39347;DHT22;26262;49.836;6.632;2023-12-29T01:24:25;9.20;99.90
39347;DHT22;26262;49.836;6.632;2023-12-29T01:26:50;9.30;99.90
39347;DHT22;26262;49.836;6.632;2023-12-29T01:29:15;9.20;99.90
39347;DHT22;26262;49.836;6.632;2023-12-29T01:31:41;9.30;99.90
39347;DHT22;26262;49.836;6.632;2023-12-29T01:34:06;9.30;99.90
39347;DHT22;26262;49.836;6.632;2023-12-29T01:36:32;9.40;99.90
39347;DHT22;26262;49.836;6.632;2023-12-29T01:38:57;9.40;99.90
39347;DHT22;26262;49.836;6.632;2023-12-29T01:41:22;9.40;99.90
39347;DHT22;26262;49.836;6.632;2023-12-29T01:46:23;9.50;99.90
39347;DHT22;26262;49.836;6.632;2023-12-29T01:48:49;9.60;99.90
39347;DHT22;26262;49.836;6.632;2023-12-29T01:51:15;9.70;99.90
39347;DHT22;26262;49.836;6.632;2023-12-29T01:53:40;9.70;99.90
39347;DHT22;26262;49.836;6.632;2023-12-29T01:56:06;9.60;99.90
39347;DHT22;26262;49.836;6.632;2023-12-29T01:58:32;9.40;99.90
39347;DHT22;26262;49.836;6.632;2023-12-29T02:00:58;9.40;99.90
39347;DHT22;26262;49.836;6.632;2023-12-29T02:03:24;9.50;99.90
39347;DHT22;26262;49.836;6.632;2023-12-29T02:05:49;9.50;99.90
39347;DHT22;26262;49.836;6.632;2023-12-29T02:08:15;9.50;99.90
39347;DHT22;26262;49.836;6.632;2023-12-29T02:10:41;9.40;99.90
39347;DHT22;26262;49.836;6.632;2023-12-29T02:13:06;9.50;99.90
39347;DHT22;26262;49.836;6.632;2023-12-29T02:15:32;9.50;99.90
39347;DHT22;26262;49.836;6.632;2023-12-29T02:17:59;9.60;99.90
39347;DHT22;26262;49.836;6.632;2023-12-29T02:20:26;9.60;99.90
39347;DHT22;26262;49.836;6.632;2023-12-29T02:22:52;9.50;99.90
39347;DHT22;26262;49.836;6.632;2023-12-29T02:25:17;9.50;99.90
39347;DHT22;26262;49.836;6.632;2023-12-29T02:32:42;9.60;99.90
39347;DHT22;26262;49.836;6.632;2023-12-29T02:35:09;9.60;99.90
39347;DHT22;26262;49.836;6.632;2023-12-29T02:37:36;9.50;99.90
39347;DHT22;26262;49.836;6.632;2023-12-29T02:40:02;9.50;99.90
39347;DHT22;26262;49.836;6.632;2023-12-29T02:42:27;9.50;99.90
39347;DHT22;26262;49.836;6.632;2023-12-29T02:44:53;9.40;99.90
39347;DHT22;26262;49.836;6.632;2023-12-29T02:47:18;9.30;99.90
39347;DHT22;26262;49.836;6.632;2023-12-29T02:49:44;9.20;99.90
39347;DHT22;26262;49.836;6.632;2023-12-29T02:52:10;9.30;99.90
39347;DHT22;26262;49.836;6.632;2023-12-29T02:54:35;9.30;99.90
39347;DHT22;26262;49.836;6.632;2023-12-29T02:57:01;9.20;99.90
39347;DHT22;26262;49.836;6.632;2023-12-29T02:59:26;9.30;99.90
39347;DHT22;26262;49.836;6.632;2023-12-29T03:01:52;9.30;99.90
39347;DHT22;26262;49.836;6.632;2023-12-29T03:04:17;9.30;99.90
39347;DHT22;26262;49.836;6.632;2023-12-29T03:06:42;9.40;99.90
39347;DHT22;26262;49.836;6.632;2023-12-29T03:09:08;9.40;99.90
39347;DHT22;26262;49.836;6.632;2023-12-29T03:11:33;9.50;99.90
39347;DHT22;26262;49.836;6.632;2023-12-29T03:13:59;9.50;99.90
39347;DHT22;26262;49.836;6.632;2023-12-29T03:16:24;9.40;99.90
39347;DHT22;26262;49.836;6.632;2023-12-29T03:18:50;9.40;99.90
39347;DHT22;26262;49.836;6.632;2023-12-29T03:21:15;9.40;99.90
39347;DHT22;26262;49.836;6.632;2023-12-29T03:23:40;9.30;99.90
39347;DHT22;26262;49.836;6.632;2023-12-29T03:26:06;9.20;99.90
39347;DHT22;26262;49.836;6.632;2023-12-29T03:28:31;9.20;99.90
39347;DHT22;26262;49.836;6.632;2023-12-29T03:30:57;9.10;99.90
39347;DHT22;26262;49.836;6.632;2023-12-29T03:33:22;9.10;99.90
39347;DHT22;26262;49.836;6.632;2023-12-29T03:35:48;9.10;99.90
39347;DHT22;26262;49.836;6.632;2023-12-29T03:38:13;9.20;99.90
39347;DHT22;26262;49.836;6.632;2023-12-29T03:40:40;9.20;99.90
39347;DHT22;26262;49.836;6.632;2023-12-29T03:43:05;9.20;99.90
39347;DHT22;26262;49.836;6.632;2023-12-29T03:45:30;9.30;99.90
39347;DHT22;26262;49.836;6.632;2023-12-29T03:47:56;9.30;99.90
39347;DHT22;26262;49.836;6.632;2023-12-29T03:50:21;9.30;99.90
39347;DHT22;26262;49.836;6.632;2023-12-29T03:52:47;9.20;99.90
39347;DHT22;26262;49.836;6.632;2023-12-29T03:55:12;9.20;99.90
39347;DHT22;26262;49.836;6.632;2023-12-29T03:57:38;9.20;99.90
39347;DHT22;26262;49.836;6.632;2023-12-29T04:00:04;9.10;99.90
39347;DHT22;26262;49.836;6.632;2023-12-29T04:02:29;9.30;99.90
39347;DHT22;26262;49.836;6.632;2023-12-29T04:04:55;9.30;99.90
39347;DHT22;26262;49.836;6.632;2023-12-29T04:07:20;9.30;99.90
39347;DHT22;26262;49.836;6.632;2023-12-29T04:09:46;9.30;99.90
39347;DHT22;26262;49.836;6.632;2023-12-29T04:12:11;9.40;99.90
39347;DHT22;26262;49.836;6.632;2023-12-29T04:14:36;9.20;99.90
39347;DHT22;26262;49.836;6.632;2023-12-29T04:17:02;9.20;99.90
39347;DHT22;26262;49.836;6.632;2023-12-29T04:19:29;9.30;99.90
39347;DHT22;26262;49.836;6.632;2023-12-29T04:21:54;9.40;99.90
39347;DHT22;26262;49.836;6.632;2023-12-29T04:24:20;9.40;99.90
39347;DHT22;26262;49.836;6.632;2023-12-29T04:26:45;9.40;99.90
39347;DHT22;26262;49.836;6.632;2023-12-29T04:29:11;9.30;99.90
39347;DHT22;26262;49.836;6.632;2023-12-29T04:31:36;9.30;99.90
39347;DHT22;26262;49.836;6.632;2023-12-29T04:34:01;9.40;99.90
39347;DHT22;26262;49.836;6.632;2023-12-29T04:36:27;9.40;99.90
39347;DHT22;26262;49.836;6.632;2023-12-29T04:38:52;9.40;99.90
39347;DHT22;26262;49.836;6.632;2023-12-29T04:41:18;9.40;99.90
39347;DHT22;26262;49.836;6.632;2023-12-29T04:43:43;9.30;99.90
39347;DHT22;26262;49.836;6.632;2023-12-29T04:46:09;9.40;99.90
39347;DHT22;26262;49.836;6.632;2023-12-29T04:48:34;9.50;99.90
39347;DHT22;26262;49.836;6.632;2023-12-29T04:51:00;9.50;99.90
39347;DHT22;26262;49.836;6.632;2023-12-29T04:53:25;9.50;99.90
39347;DHT22;26262;49.836;6.632;2023-12-29T04:55:50;9.40;99.90
39347;DHT22;26262;49.836;6.632;2023-12-29T04:58:16;9.50;99.90
39347;DHT22;26262;49.836;6.632;2023-12-29T05:00:41;9.50;99.90
39347;DHT22;26262;49.836;6.632;2023-12-29T05:03:07;9.60;99.90
39347;DHT22;26262;49.836;6.632;2023-12-29T05:05:32;9.40;99.90
39347;DHT22;26262;49.836;6.632;2023-12-29T05:07:57;9.40;99.90
39347;DHT22;26262;49.836;6.632;2023-12-29T05:10:23;9.60;99.90
39347;DHT22;26262;49.836;6.632;2023-12-29T05:12:48;9.60;99.90
39347;DHT22;26262;49.836;6.632;2023-12-29T05:15:14;9.70;99.90
39347;DHT22;26262;49.836;6.632;2023-12-29T05:17:39;9.70;99.90
39347;DHT22;26262;49.836;6.632;2023-12-29T05:20:06;9.70;99.90
39347;DHT22;26262;49.836;6.632;2023-12-29T05:22:31;9.60;99.90
39347;DHT22;26262;49.836;6.632;2023-12-29T05:24:57;9.60;99.90
39347;DHT22;26262;49.836;6.632;2023-12-29T05:27:25;9.50;99.90
39347;DHT22;26262;49.836;6.632;2023-12-29T05:29:51;9.60;99.90
39347;DHT22;26262;49.836;6.632;2023-12-29T05:32:16;9.40;99.90
39347;DHT22;26262;49.836;6.632;2023-12-29T05:34:41;9.40;99.90
39347;DHT22;26262;49.836;6.632;2023-12-29T05:37:07;9.50;99.90
39347;DHT22;26262;49.836;6.632;2023-12-29T05:39:32;9.60;99.90
39347;DHT22;26262;49.836;6.632;2023-12-29T05:41:58;9.70;99.90
39347;DHT22;26262;49.836;6.632;2023-12-29T05:44:23;9.70;99.90
39347;DHT22;26262;49.836;6.632;2023-12-29T05:46:49;9.70;99.90
39347;DHT22;26262;49.836;6.632;2023-12-29T05:49:14;9.60;99.90
39347;DHT22;26262;49.836;6.632;2023-12-29T05:51:40;9.50;99.90
39347;DHT22;26262;49.836;6.632;2023-12-29T05:54:05;9.60;99.90
39347;DHT22;26262;49.836;6.632;2023-12-29T05:56:31;9.60;99.90
39347;DHT22;26262;49.836;6.632;2023-12-29T05:58:56;9.70;99.90
39347;DHT22;26262;49.836;6.632;2023-12-29T06:01:21;9.70;99.90
39347;DHT22;26262;49.836;6.632;2023-12-29T06:03:47;9.70;99.90
39347;DHT22;26262;49.836;6.632;2023-12-29T06:06:12;9.70;99.90
39347;DHT22;26262;49.836;6.632;2023-12-29T06:08:38;9.80;99.90
39347;DHT22;26262;49.836;6.632;2023-12-29T06:11:03;9.70;99.90
39347;DHT22;26262;49.836;6.632;2023-12-29T06:13:29;9.70;99.90
39347;DHT22;26262;49.836;6.632;2023-12-29T06:15:55;9.60;99.90
39347;DHT22;26262;49.836;6.632;2023-12-29T06:18:21;9.70;99.90
39347;DHT22;26262;49.836;6.632;2023-12-29T06:20:46;9.80;99.90
39347;DHT22;26262;49.836;6.632;2023-12-29T06:23:11;9.70;99.90
39347;DHT22;26262;49.836;6.632;2023-12-29T06:25:37;9.80;99.90
39347;DHT22;26262;49.836;6.632;2023-12-29T06:28:04;9.90;99.90
39347;DHT22;26262;49.836;6.632;2023-12-29T06:30:31;9.80;99.90
39347;DHT22;26262;49.836;6.632;2023-12-29T06:32:57;9.80;99.90
39347;DHT22;26262;49.836;6.632;2023-12-29T06:35:23;9.90;99.90
39347;DHT22;26262;49.836;6.632;2023-12-29T06:37:48;9.80;99.90
39347;DHT22;26262;49.836;6.632;2023-12-29T06:40:14;9.60;99.90
39347;DHT22;26262;49.836;6.632;2023-12-29T06:42:39;9.80;99.90
39347;DHT22;26262;49.836;6.632;2023-12-29T06:45:05;9.80;99.90
39347;DHT22;26262;49.836;6.632;2023-12-29T06:47:33;9.60;99.90
39347;DHT22;26262;49.836;6.632;2023-12-29T06:49:58;9.50;99.90
39347;DHT22;26262;49.836;6.632;2023-12-29T06:52:24;9.50;99.90
39347;DHT22;26262;49.836;6.632;2023-12-29T06:54:49;9.40;99.90
39347;DHT22;26262;49.836;6.632;2023-12-29T06:57:15;9.30;99.90
39347;DHT22;26262;49.836;6.632;2023-12-29T06:59:42;9.40;99.90
39347;DHT22;26262;49.836;6.632;2023-12-29T07:02:07;9.40;99.90
39347;DHT22;26262;49.836;6.632;2023-12-29T07:04:32;9.40;99.90
39347;DHT22;26262;49.836;6.632;2023-12-29T07:06:59;9.40;99.90
39347;DHT22;26262;49.836;6.632;2023-12-29T07:09:25;9.50;99.90
39347;DHT22;26262;49.836;6.632;2023-12-29T07:11:51;9.60;99.90
39347;DHT22;26262;49.836;6.632;2023-12-29T07:14:16;9.70;99.90
39347;DHT22;26262;49.836;6.632;2023-12-29T07:16:42;9.70;99.90
39347;DHT22;26262;49.836;6.632;2023-12-29T07:19:07;9.60;99.90
39347;DHT22;26262;49.836;6.632;2023-12-29T07:21:33;9.50;99.90
39347;DHT22;26262;49.836;6.632;2023-12-29T07:23:59;9.60;99.90
39347;DHT22;26262;49.836;6.632;2023-12-29T07:26:25;9.60;99.90
39347;DHT22;26262;49.836;6.632;2023-12-29T07:28:50;9.70;99.90
39347;DHT22;26262;49.836;6.632;2023-12-29T07:31:22;9.50;99.90
39347;DHT22;26262;49.836;6.632;2023-12-29T07:33:47;9.60;99.90
39347;DHT22;26262;49.836;6.632;2023-12-29T07:36:13;9.60;99.90
39347;DHT22;26262;49.836;6.632;2023-12-29T07:38:38;9.60;99.90
39347;DHT22;26262;49.836;6.632;2023-12-29T07:41:04;9.70;99.90
39347;DHT22;26262;49.836;6.632;2023-12-29T07:43:29;9.60;99.90
39347;DHT22;26262;49.836;6.632;2023-12-29T07:45:55;9.50;99.90
39347;DHT22;26262;49.836;6.632;2023-12-29T07:48:20;9.50;99.90
39347;DHT22;26262;49.836;6.632;2023-12-29T07:50:45;9.60;99.90
39347;DHT22;26262;49.836;6.632;2023-12-29T07:53:11;9.40;99.90
39347;DHT22;26262;49.836;6.632;2023-12-29T07:55:39;9.30;99.90
39347;DHT22;26262;49.836;6.632;2023-12-29T07:58:05;9.40;99.90
39347;DHT22;26262;49.836;6.632;2023-12-29T08:00:31;9.50;99.90
39347;DHT22;26262;49.836;6.632;2023-12-29T08:02:56;9.50;99.90
39347;DHT22;26262;49.836;6.632;2023-12-29T08:05:24;9.60;99.90
39347;DHT22;26262;49.836;6.632;2023-12-29T08:07:50;9.70;99.90
39347;DHT22;26262;49.836;6.632;2023-12-29T08:10:15;9.70;99.90
39347;DHT22;26262;49.836;6.632;2023-12-29T08:12:41;9.70;99.90
39347;DHT22;26262;49.836;6.632;2023-12-29T08:15:06;9.90;99.90
39347;DHT22;26262;49.836;6.632;2023-12-29T08:17:32;9.70;99.90
39347;DHT22;26262;49.836;6.632;2023-12-29T08:19:57;9.70;99.90
39347;DHT22;26262;49.836;6.632;2023-12-29T08:22:22;9.70;99.90
39347;DHT22;26262;49.836;6.632;2023-12-29T08:24:48;9.70;99.90
39347;DHT22;26262;49.836;6.632;2023-12-29T08:27:13;9.70;99.90
39347;DHT22;26262;49.836;6.632;2023-12-29T08:29:39;9.60;99.90
39347;DHT22;26262;49.836;6.632;2023-12-29T08:32:05;9.50;99.90
39347;DHT22;26262;49.836;6.632;2023-12-29T08:34:30;9.50;99.90
39347;DHT22;26262;49.836;6.632;2023-12-29T08:36:55;9.50;99.90
39347;DHT22;26262;49.836;6.632;2023-12-29T08:39:21;9.70;99.90
39347;DHT22;26262;49.836;6.632;2023-12-29T08:41:47;9.50;99.90
39347;DHT22;26262;49.836;6.632;2023-12-29T08:44:14;9.60;99.90
39347;DHT22;26262;49.836;6.632;2023-12-29T08:46:40;9.70;99.90
39347;DHT22;26262;49.836;6.632;2023-12-29T08:49:05;9.70;99.90
39347;DHT22;26262;49.836;6.632;2023-12-29T08:51:31;9.60;99.90
39347;DHT22;26262;49.836;6.632;2023-12-29T08:53:56;9.70;99.90
39347;DHT22;26262;49.836;6.632;2023-12-29T08:56:22;9.60;99.90
39347;DHT22;26262;49.836;6.632;2023-12-29T08:58:47;9.60;99.90
39347;DHT22;26262;49.836;6.632;2023-12-29T09:01:12;9.60;99.90
39347;DHT22;26262;49.836;6.632;2023-12-29T09:03:38;9.50;99.90
39347;DHT22;26262;49.836;6.632;2023-12-29T09:06:04;9.60;99.90
39347;DHT22;26262;49.836;6.632;2023-12-29T09:08:29;9.50;99.90
39347;DHT22;26262;49.836;6.632;2023-12-29T09:10:54;9.60;99.90
39347;DHT22;26262;49.836;6.632;2023-12-29T09:13:20;9.70;99.90
39347;DHT22;26262;49.836;6.632;2023-12-29T09:15:48;9.70;99.90
39347;DHT22;26262;49.836;6.632;2023-12-29T09:18:13;9.80;99.90
39347;DHT22;26262;49.836;6.632;2023-12-29T09:20:39;9.80;99.90
39347;DHT22;26262;49.836;6.632;2023-12-29T09:23:05;9.80;99.90
39347;DHT22;26262;49.836;6.632;2023-12-29T09:25:30;9.80;99.90
39347;DHT22;26262;49.836;6.632;2023-12-29T09:27:55;9.70;99.90
39347;DHT22;26262;49.836;6.632;2023-12-29T09:30:21;9.70;99.90
39347;DHT22;26262;49.836;6.632;2023-12-29T09:32:47;9.70;99.90
39347;DHT22;26262;49.836;6.632;2023-12-29T09:35:12;9.70;99.90
39347;DHT22;26262;49.836;6.632;2023-12-29T09:37:37;9.80;99.90
39347;DHT22;26262;49.836;6.632;2023-12-29T09:40:03;9.70;99.90
39347;DHT22;26262;49.836;6.632;2023-12-29T09:42:29;9.80;99.90
39347;DHT22;26262;49.836;6.632;2023-12-29T09:44:55;9.80;99.90
39347;DHT22;26262;49.836;6.632;2023-12-29T09:47:22;9.90;99.90
39347;DHT22;26262;49.836;6.632;2023-12-29T09:49:49;9.80;99.90
39347;DHT22;26262;49.836;6.632;2023-12-29T09:52:14;9.70;99.90
39347;DHT22;26262;49.836;6.632;2023-12-29T09:54:41;9.80;99.90
39347;DHT22;26262;49.836;6.632;2023-12-29T09:57:08;9.70;99.90
39347;DHT22;26262;49.836;6.632;2023-12-29T09:59:34;9.80;99.90
39347;DHT22;26262;49.836;6.632;2023-12-29T10:02:02;9.90;99.90
39347;DHT22;26262;49.836;6.632;2023-12-29T10:04:28;9.90;99.90
39347;DHT22;26262;49.836;6.632;2023-12-29T10:06:54;10.00;99.90
39347;DHT22;26262;49.836;6.632;2023-12-29T10:09:20;10.00;99.90
39347;DHT22;26262;49.836;6.632;2023-12-29T10:11:47;9.90;99.90
39347;DHT22;26262;49.836;6.632;2023-12-29T10:14:24;9.80;99.90
39347;DHT22;26262;49.836;6.632;2023-12-29T10:17:06;9.70;99.90
39347;DHT22;26262;49.836;6.632;2023-12-29T10:19:37;9.70;99.90
39347;DHT22;26262;49.836;6.632;2023-12-29T10:24:32;9.80;99.90
39347;DHT22;26262;49.836;6.632;2023-12-29T10:26:58;9.90;99.90
39347;DHT22;26262;49.836;6.632;2023-12-29T10:29:23;9.90;99.90
39347;DHT22;26262;49.836;6.632;2023-12-29T10:31:49;9.90;99.90
39347;DHT22;26262;49.836;6.632;2023-12-29T10:34:21;9.80;99.90
39347;DHT22;26262;49.836;6.632;2023-12-29T10:36:57;9.80;99.90
39347;DHT22;26262;49.836;6.632;2023-12-29T10:39:23;9.80;99.90
39347;DHT22;26262;49.836;6.632;2023-12-29T10:41:49;9.80;99.90
39347;DHT22;26262;49.836;6.632;2023-12-29T10:44:15;9.80;99.90
39347;DHT22;26262;49.836;6.632;2023-12-29T10:46:41;9.90;99.90
39347;DHT22;26262;49.836;6.632;2023-12-29T10:49:07;9.80;99.90
39347;DHT22;26262;49.836;6.632;2023-12-29T10:51:33;9.90;99.90
39347;DHT22;26262;49.836;6.632;2023-12-29T10:53:59;9.80;99.90
39347;DHT22;26262;49.836;6.632;2023-12-29T10:56:25;10.00;99.90
39347;DHT22;26262;49.836;6.632;2023-12-29T10:59:04;9.90;99.90
39347;DHT22;26262;49.836;6.632;2023-12-29T11:01:30;9.80;99.90
39347;DHT22;26262;49.836;6.632;2023-12-29T11:06:26;9.70;99.90
39347;DHT22;26262;49.836;6.632;2023-12-29T11:08:51;9.70;99.90
39347;DHT22;26262;49.836;6.632;2023-12-29T11:11:17;9.80;99.90
39347;DHT22;26262;49.836;6.632;2023-12-29T11:13:42;9.90;99.90
39347;DHT22;26262;49.836;6.632;2023-12-29T11:16:08;9.90;99.90
39347;DHT22;26262;49.836;6.632;2023-12-29T11:18:34;9.90;99.90
39347;DHT22;26262;49.836;6.632;2023-12-29T11:20:59;9.90;99.90
39347;DHT22;26262;49.836;6.632;2023-12-29T11:23:25;9.80;99.90
39347;DHT22;26262;49.836;6.632;2023-12-29T11:25:50;9.70;99.90
39347;DHT22;26262;49.836;6.632;2023-12-29T11:28:16;9.90;99.90
39347;DHT22;26262;49.836;6.632;2023-12-29T11:30:43;9.80;99.90
39347;DHT22;26262;49.836;6.632;2023-12-29T11:33:10;9.80;99.90
39347;DHT22;26262;49.836;6.632;2023-12-29T11:43:25;9.70;99.90
39347;DHT22;26262;49.836;6.632;2023-12-29T11:45:51;9.70;99.90
39347;DHT22;26262;49.836;6.632;2023-12-29T11:51:02;9.90;99.90
39347;DHT22;26262;49.836;6.632;2023-12-29T11:53:47;10.00;99.90
39347;DHT22;26262;49.836;6.632;2023-12-29T11:56:15;10.00;99.90
39347;DHT22;26262;49.836;6.632;2023-12-29T11:58:41;10.00;99.90
39347;DHT22;26262;49.836;6.632;2023-12-29T12:01:06;10.00;99.90
39347;DHT22;26262;49.836;6.632;2023-12-29T12:03:32;9.80;99.90
39347;DHT22;26262;49.836;6.632;2023-12-29T12:05:58;9.80;99.90
39347;DHT22;26262;49.836;6.632;2023-12-29T12:10:52;9.90;99.90
39347;DHT22;26262;49.836;6.632;2023-12-29T12:16:01;10.00;99.90
39347;DHT22;26262;49.836;6.632;2023-12-29T12:18:27;10.10;99.90
39347;DHT22;26262;49.836;6.632;2023-12-29T12:20:52;10.10;99.90
39347;DHT22;26262;49.836;6.632;2023-12-29T12:23:18;10.10;99.90
39347;DHT22;26262;49.836;6.632;2023-12-29T12:25:44;10.10;99.90
39347;DHT22;26262;49.836;6.632;2023-12-29T12:28:10;9.90;99.90
39347;DHT22;26262;49.836;6.632;2023-12-29T12:30:38;10.00;99.90
39347;DHT22;26262;49.836;6.632;2023-12-29T12:33:04;10.00;99.90
39347;DHT22;26262;49.836;6.632;2023-12-29T12:35:30;10.00;99.90
39347;DHT22;26262;49.836;6.632;2023-12-29T12:38:14;10.10;99.90
39347;DHT22;26262;49.836;6.632;2023-12-29T12:40:41;10.20;99.90
39347;DHT22;26262;49.836;6.632;2023-12-29T12:43:07;10.20;99.90
39347;DHT22;26262;49.836;6.632;2023-12-29T12:45:33;10.20;99.90
39347;DHT22;26262;49.836;6.632;2023-12-29T12:48:00;10.20;99.90
39347;DHT22;26262;49.836;6.632;2023-12-29T12:50:27;10.40;99.90
39347;DHT22;26262;49.836;6.632;2023-12-29T12:52:52;10.30;99.90
39347;DHT22;26262;49.836;6.632;2023-12-29T12:55:18;10.40;99.90
39347;DHT22;26262;49.836;6.632;2023-12-29T12:57:44;10.40;99.90
39347;DHT22;26262;49.836;6.632;2023-12-29T13:00:09;10.40;99.90
39347;DHT22;26262;49.836;6.632;2023-12-29T13:02:35;10.50;99.90
39347;DHT22;26262;49.836;6.632;2023-12-29T13:05:01;10.60;99.90
39347;DHT22;26262;49.836;6.632;2023-12-29T13:07:30;10.60;99.90
39347;DHT22;26262;49.836;6.632;2023-12-29T13:09:57;10.50;99.90
39347;DHT22;26262;49.836;6.632;2023-12-29T13:12:23;10.50;99.90
39347;DHT22;26262;49.836;6.632;2023-12-29T13:14:49;10.30;99.90
39347;DHT22;26262;49.836;6.632;2023-12-29T13:17:15;10.20;99.90
39347;DHT22;26262;49.836;6.632;2023-12-29T13:19:41;10.30;99.90
39347;DHT22;26262;49.836;6.632;2023-12-29T13:22:09;10.40;99.90
39347;DHT22;26262;49.836;6.632;2023-12-29T13:24:35;10.30;99.90
39347;DHT22;26262;49.836;6.632;2023-12-29T13:27:02;10.40;99.90
39347;DHT22;26262;49.836;6.632;2023-12-29T13:29:29;10.40;99.90
39347;DHT22;26262;49.836;6.632;2023-12-29T13:31:57;10.40;99.90
39347;DHT22;26262;49.836;6.632;2023-12-29T13:34:32;10.30;99.90
39347;DHT22;26262;49.836;6.632;2023-12-29T13:37:08;10.30;99.90
39347;DHT22;26262;49.836;6.632;2023-12-29T13:42:01;10.40;99.90
39347;DHT22;26262;49.836;6.632;2023-12-29T13:44:29;10.50;99.90
39347;DHT22;26262;49.836;6.632;2023-12-29T13:46:54;10.50;99.90
39347;DHT22;26262;49.836;6.632;2023-12-29T13:49:20;10.60;99.90
39347;DHT22;26262;49.836;6.632;2023-12-29T13:51:46;10.50;99.90
39347;DHT22;26262;49.836;6.632;2023-12-29T13:54:11;10.50;99.90
39347;DHT22;26262;49.836;6.632;2023-12-29T13:56:37;10.50;99.90
39347;DHT22;26262;49.836;6.632;2023-12-29T13:59:04;10.40;99.90
39347;DHT22;26262;49.836;6.632;2023-12-29T14:01:35;10.30;99.90
39347;DHT22;26262;49.836;6.632;2023-12-29T14:04:02;10.30;99.90
39347;DHT22;26262;49.836;6.632;2023-12-29T14:06:29;10.20;99.90
39347;DHT22;26262;49.836;6.632;2023-12-29T14:08:55;10.30;99.90
39347;DHT22;26262;49.836;6.632;2023-12-29T14:11:21;10.20;99.90
39347;DHT22;26262;49.836;6.632;2023-12-29T14:13:48;10.40;99.90
39347;DHT22;26262;49.836;6.632;2023-12-29T14:16:13;10.40;99.90
39347;DHT22;26262;49.836;6.632;2023-12-29T14:21:23;10.40;99.90
39347;DHT22;26262;49.836;6.632;2023-12-29T14:23:58;10.30;99.90
39347;DHT22;26262;49.836;6.632;2023-12-29T14:26:24;10.40;99.90
39347;DHT22;26262;49.836;6.632;2023-12-29T14:29:09;10.30;99.90
39347;DHT22;26262;49.836;6.632;2023-12-29T14:31:35;10.30;99.90
39347;DHT22;26262;49.836;6.632;2023-12-29T14:34:02;10.40;99.90
39347;DHT22;26262;49.836;6.632;2023-12-29T14:36:28;10.40;99.90
39347;DHT22;26262;49.836;6.632;2023-12-29T14:38:54;10.40;99.90
39347;DHT22;26262;49.836;6.632;2023-12-29T14:41:19;10.50;99.90
39347;DHT22;26262;49.836;6.632;2023-12-29T14:43:45;10.40;99.90
39347;DHT22;26262;49.836;6.632;2023-12-29T14:46:10;10.30;99.90
39347;DHT22;26262;49.836;6.632;2023-12-29T14:48:36;10.20;99.90
39347;DHT22;26262;49.836;6.632;2023-12-29T14:51:01;10.20;99.90
39347;DHT22;26262;49.836;6.632;2023-12-29T14:53:28;10.20;99.90
39347;DHT22;26262;49.836;6.632;2023-12-29T14:55:53;10.20;99.90
39347;DHT22;26262;49.836;6.632;2023-12-29T14:58:19;10.20;99.90
39347;DHT22;26262;49.836;6.632;2023-12-29T15:00:44;10.30;99.90
39347;DHT22;26262;49.836;6.632;2023-12-29T15:03:11;10.30;99.90
39347;DHT22;26262;49.836;6.632;2023-12-29T15:05:37;10.10;99.90
39347;DHT22;26262;49.836;6.632;2023-12-29T15:08:03;10.20;99.90
39347;DHT22;26262;49.836;6.632;2023-12-29T15:10:29;10.20;99.90
39347;DHT22;26262;49.836;6.632;2023-12-29T15:12:54;10.10;99.90
39347;DHT22;26262;49.836;6.632;2023-12-29T15:15:19;10.00;99.90
39347;DHT22;26262;49.836;6.632;2023-12-29T15:17:45;10.00;99.90
39347;DHT22;26262;49.836;6.632;2023-12-29T15:20:11;9.90;99.90
39347;DHT22;26262;49.836;6.632;2023-12-29T15:22:36;9.80;99.90
39347;DHT22;26262;49.836;6.632;2023-12-29T15:25:02;9.90;99.90
39347;DHT22;26262;49.836;6.632;2023-12-29T15:27:27;9.80;99.90
39347;DHT22;26262;49.836;6.632;2023-12-29T15:29:53;9.70;99.90
39347;DHT22;26262;49.836;6.632;2023-12-29T15:32:18;9.80;99.90
39347;DHT22;26262;49.836;6.632;2023-12-29T15:34:44;9.80;99.90
39347;DHT22;26262;49.836;6.632;2023-12-29T15:37:09;9.80;99.90
39347;DHT22;26262;49.836;6.632;2023-12-29T15:39:34;9.90;99.90
39347;DHT22;26262;49.836;6.632;2023-12-29T15:42:00;9.60;99.90
39347;DHT22;26262;49.836;6.632;2023-12-29T15:44:25;9.60;99.90
39347;DHT22;26262;49.836;6.632;2023-12-29T15:46:51;9.70;99.90
39347;DHT22;26262;49.836;6.632;2023-12-29T15:49:17;9.60;99.90
39347;DHT22;26262;49.836;6.632;2023-12-29T15:51:43;9.70;99.90
39347;DHT22;26262;49.836;6.632;2023-12-29T15:54:08;9.60;99.90
39347;DHT22;26262;49.836;6.632;2023-12-29T15:56:34;9.50;99.90
39347;DHT22;26262;49.836;6.632;2023-12-29T15:58:59;9.60;99.90
39347;DHT22;26262;49.836;6.632;2023-12-29T16:01:25;9.50;99.90
39347;DHT22;26262;49.836;6.632;2023-12-29T16:03:53;9.60;99.90
39347;DHT22;26262;49.836;6.632;2023-12-29T16:06:19;9.60;99.90
39347;DHT22;26262;49.836;6.632;2023-12-29T16:08:44;9.60;99.90